Aeroporto :
LOGIN :

Iscrizione | Disclaimer

   EN    FR    IT 

 










Sommario :    VFR   VFR Marginale   IFR   IFR Intensivo   IFR Molto Intensivo
Visibilità : 
Base nubi : 
>= 8 km
>= 3000ft
5 / 8 km
1000 / 3000 ft
1500m / 5 km
500 / 1000 ft
800 / 1500m
200 / 500 ft
< 800m
< 200 ft
Simboli :   Temporali  Nebbia  Neve Forte  Precipitazioni Forti  Vento > 20 kt
SIGMETs :   Varie  Temporali  Ghiacco  Turbolenza  Onda orograficha  Ceneri Vulcaniche






- Altitudine del aeroporto : 3 ft
- Codice IATA : DHR


EHKD - Den Helder De Kooy

ULTIMO METAR :
  • 180300Z AUTO 05006KT 020V080 3600 SHRA BKN006 FEW015CB 18/17 Q1014 YLO

METARs OBSOLETI :
  • 180231Z AUTO 04006KT 360V070 9999 BKN006 BKN007 FEW015CB 18/17 Q1014 YLO
  • 180225Z AUTO 04007KT 010V080 9999 SCT006 BKN008 BKN009 FEW015CB 18/17 Q1013 YLO
  • 180155Z AUTO 03007KT 360V060 6000 BR FEW004 BKN006 OVC007 18/17 Q1013 YLO
  • 180134Z AUTO 02006KT 330V050 4500 BR BKN003 OVC004 18/17 Q1014 YLO
  • 180125Z AUTO 02006KT 4000 BR OVC002 17/17 Q1014 AMB
  • 180102Z AUTO 04005KT 010V070 4600 BR BKN002 OVC003 17/17 Q1014 AMB
  • 180055Z AUTO 04005KT 360V070 5000 BR OVC002 17/16 Q1014 AMB
  • 180025Z AUTO 02004KT 350V050 6000 BR OVC002 17/16 Q1014 AMB
  • 180017Z AUTO 01005KT 330V080 6000 BR BKN002 OVC004 17/16 Q1014 AMB
  • 180013Z AUTO 01006KT 330V080 7000 BR OVC003 17/16 Q1014 YLO

TAF TAF EHKD
Valido dal 18 a 01 ore il 18 a 13 ore UTC


180038Z 1801/1813 03005KT 7000 BR BKN004
TEMPO 1801/1804 4500 MIFG SCT002 BKN003
PROB40
TEMPO 1802/1807 VRB15G32KT 3500 SHRA TSRA SCT030 SCT060CB BKN070
PROB30
TEMPO 1803/1807 1500 TSRAGR SCT020 BKN035 BKN050CB
BECMG 1805/1808 05010KT NSC



MetMap, La meteo Aeronautica in un colpo d'occhio ! - Copyright ORBIFLY Dicembre 2007 - Disclaimer

ORBIFLY MET'MAP TEAM :

Programmazione e sviluppo : Alexandra Zaïnal
Concezione : Baudouin d'Aumeries
Aiuto per la programmazione : Marc-Olivier Méhu
Supporto tecnico e logistico : Manuel Goepfert
Aiuto per la traduzione : Arnaldo La Scala

Contatto : metmap@orbifly.com




FONTI E CREDITI :

   NOAA